createdAt,value
2018-01-20T00:00:46.867Z,5.93
2018-01-20T00:03:16.726Z,10.43
2018-01-20T00:05:46.553Z,4.68
2018-01-20T00:08:16.424Z,6.95
2018-01-20T00:10:57.536Z,4.20
2018-01-20T00:13:27.059Z,4.10
2018-01-20T00:15:56.953Z,5.95
2018-01-20T00:18:26.750Z,5.28
2018-01-20T00:20:56.549Z,5.75
2018-01-20T00:23:26.383Z,4.55
2018-01-20T00:26:01.644Z,5.95
2018-01-20T00:28:31.468Z,4.30
2018-01-20T00:31:01.292Z,6.40
2018-01-20T00:33:31.109Z,7.68
2018-01-20T00:36:00.942Z,4.93
2018-01-20T00:38:30.741Z,7.78
2018-01-20T00:41:00.616Z,8.85
2018-01-20T00:43:30.395Z,7.25
2018-01-20T00:46:00.250Z,5.72
2018-01-20T00:48:30.056Z,8.50
2018-01-20T00:50:59.855Z,8.30
2018-01-20T00:53:29.648Z,8.10
2018-01-20T00:55:59.466Z,7.90
2018-01-20T00:58:29.256Z,6.78
2018-01-20T01:00:59.058Z,8.80
2018-01-20T01:03:28.850Z,6.82
2018-01-20T01:05:58.661Z,6.82
2018-01-20T01:08:28.444Z,5.72
2018-01-20T01:10:58.276Z,7.80
2018-01-20T01:13:28.060Z,5.72
2018-01-20T01:15:57.955Z,5.20
2018-01-20T01:18:27.774Z,5.57
2018-01-20T01:20:57.568Z,7.07
2018-01-20T01:23:27.375Z,7.40
2018-01-20T01:25:57.220Z,5.57
2018-01-20T01:28:27.017Z,6.82
2018-01-20T01:30:56.804Z,6.22
2018-01-20T01:33:26.613Z,8.57
2018-01-20T01:35:56.458Z,9.38
2018-01-20T01:38:26.245Z,7.75
2018-01-20T01:40:56.057Z,8.95
2018-01-20T01:43:25.848Z,11.65
2018-01-20T01:45:55.638Z,6.70
2018-01-20T01:48:25.500Z,6.78
2018-01-20T01:50:55.295Z,6.07
2018-01-20T01:53:25.139Z,6.15
2018-01-20T01:55:54.918Z,8.20
2018-01-20T01:58:24.801Z,9.80
2018-01-20T02:00:54.610Z,5.25
2018-01-20T02:03:24.388Z,7.50
2018-01-20T02:05:54.193Z,6.90
2018-01-20T02:08:24.008Z,6.22
2018-01-20T02:10:53.815Z,9.90
2018-01-20T02:13:23.616Z,7.47
2018-01-20T02:15:53.442Z,8.25
2018-01-20T02:18:23.215Z,9.13
2018-01-20T02:20:52.983Z,9.32
2018-01-20T02:23:22.781Z,8.68
2018-01-20T02:25:52.565Z,9.48
2018-01-20T02:28:22.343Z,9.90
2018-01-20T02:30:52.142Z,8.40
2018-01-20T02:33:21.907Z,9.23
2018-01-20T02:35:51.687Z,8.05
2018-01-20T02:38:21.482Z,10.20
2018-01-20T02:40:51.280Z,9.02
2018-01-20T02:43:21.074Z,12.95
2018-01-20T02:45:50.864Z,12.30
2018-01-20T02:48:20.656Z,11.25
2018-01-20T02:50:50.438Z,13.15
2018-01-20T02:53:20.232Z,13.77
2018-01-20T02:55:50.043Z,10.88
2018-01-20T02:58:19.849Z,10.10
2018-01-20T03:00:49.638Z,10.27
2018-01-20T03:03:19.444Z,11.23
2018-01-20T03:05:49.225Z,8.05
2018-01-20T03:08:19.000Z,7.78
2018-01-20T03:10:48.816Z,10.60
2018-01-20T03:13:18.686Z,9.10
2018-01-20T03:15:48.467Z,9.40
2018-01-20T03:18:18.310Z,9.88
2018-01-20T03:20:48.348Z,11.43
2018-01-20T03:23:18.126Z,9.20
2018-01-20T03:25:47.955Z,9.68
2018-01-20T03:28:17.732Z,9.27
2018-01-20T03:30:47.519Z,10.75
2018-01-20T03:33:17.553Z,11.60
2018-01-20T03:35:47.363Z,11.23
2018-01-20T03:38:17.156Z,11.38
2018-01-20T03:40:46.970Z,11.05
2018-01-20T03:43:16.798Z,10.05
2018-01-20T03:45:46.661Z,9.55
2018-01-20T03:48:16.452Z,10.63
2018-01-20T03:50:46.288Z,10.75
2018-01-20T03:53:15.892Z,10.27
2018-01-20T03:55:45.681Z,9.45
2018-01-20T03:58:15.510Z,11.48
2018-01-20T04:00:45.280Z,12.15
2018-01-20T04:03:15.083Z,14.82
2018-01-20T04:05:44.874Z,11.77
2018-01-20T04:08:14.677Z,14.30
2018-01-20T04:10:44.522Z,12.20
2018-01-20T04:13:14.310Z,12.18
2018-01-20T04:15:44.121Z,9.85
2018-01-20T04:18:14.104Z,10.00
2018-01-20T04:20:43.899Z,12.40
2018-01-20T04:23:13.677Z,9.20
2018-01-20T04:25:43.480Z,11.15
2018-01-20T04:28:13.295Z,11.63
2018-01-20T04:30:43.153Z,11.80
2018-01-20T04:33:12.942Z,8.57
2018-01-20T04:35:42.737Z,11.27
2018-01-20T04:38:12.534Z,11.90
2018-01-20T04:40:42.336Z,9.25
2018-01-20T04:43:11.993Z,9.32
2018-01-20T04:45:41.771Z,9.35
2018-01-20T04:48:11.564Z,8.60
2018-01-20T04:50:41.423Z,11.77
2018-01-20T04:53:11.212Z,10.65
2018-01-20T04:55:40.820Z,10.32
2018-01-20T04:58:10.606Z,10.48
2018-01-20T05:00:40.184Z,10.30
2018-01-20T05:03:09.978Z,8.55
2018-01-20T05:05:39.756Z,8.23
2018-01-20T05:08:09.549Z,10.13
2018-01-20T05:10:39.323Z,8.82
2018-01-20T05:13:09.113Z,10.05
2018-01-20T05:15:38.898Z,7.00
2018-01-20T05:18:08.691Z,11.90
2018-01-20T05:20:38.476Z,9.30
2018-01-20T05:23:08.287Z,9.30
2018-01-20T05:25:38.143Z,8.45
2018-01-20T05:28:07.957Z,9.60
2018-01-20T05:30:37.759Z,7.97
2018-01-20T05:33:07.306Z,8.65
2018-01-20T05:35:37.082Z,8.40
2018-01-20T05:38:07.052Z,7.82
2018-01-20T05:40:36.864Z,7.12
2018-01-20T05:43:06.671Z,7.25
2018-01-20T05:45:36.475Z,7.60
2018-01-20T05:48:06.276Z,9.25
2018-01-20T05:50:36.049Z,9.10
2018-01-20T05:53:05.856Z,8.95
2018-01-20T05:55:35.644Z,6.97
2018-01-20T05:58:05.451Z,9.48
2018-01-20T06:00:35.250Z,9.43
2018-01-20T06:03:04.804Z,11.38
2018-01-20T06:05:34.616Z,13.02
2018-01-20T06:08:04.276Z,11.23
2018-01-20T06:10:34.071Z,10.00
2018-01-20T06:13:03.885Z,12.43
2018-01-20T06:15:33.687Z,11.55
2018-01-20T06:18:03.517Z,14.10
2018-01-20T06:20:33.292Z,11.12
2018-01-20T06:23:03.118Z,13.18
2018-01-20T06:25:32.937Z,11.65
2018-01-20T06:28:02.745Z,13.95
2018-01-20T06:30:32.655Z,11.10
2018-01-20T06:33:02.516Z,12.40
2018-01-20T06:35:32.313Z,11.57
2018-01-20T06:38:02.088Z,12.13
2018-01-20T06:40:31.890Z,10.13
2018-01-20T06:43:01.696Z,11.57
2018-01-20T06:45:31.497Z,12.90
2018-01-20T06:48:01.293Z,13.45
2018-01-20T06:50:31.106Z,9.82
2018-01-20T06:53:00.886Z,11.23
2018-01-20T06:55:30.671Z,13.98
2018-01-20T06:58:00.214Z,12.73
2018-01-20T07:00:29.996Z,10.50
2018-01-20T07:02:59.789Z,10.68
2018-01-20T07:05:29.589Z,10.23
2018-01-20T07:07:59.380Z,10.73
2018-01-20T07:10:29.172Z,12.23
2018-01-20T07:12:58.763Z,14.55
2018-01-20T07:15:28.594Z,11.27
2018-01-20T07:17:58.405Z,9.10
2018-01-20T07:20:28.209Z,9.98
2018-01-20T07:22:57.983Z,9.05
2018-01-20T07:25:27.801Z,8.88
2018-01-20T07:27:57.710Z,11.40
2018-01-20T07:30:27.594Z,7.62
2018-01-20T07:32:57.378Z,10.07
2018-01-20T07:35:27.164Z,9.57
2018-01-20T07:37:57.002Z,10.60
2018-01-20T07:40:26.965Z,9.70
2018-01-20T07:42:56.748Z,9.63
2018-01-20T07:45:27.427Z,9.38
2018-01-20T07:47:57.254Z,8.27
2018-01-20T07:50:27.044Z,10.23
2018-01-20T07:52:56.910Z,9.63
2018-01-20T07:55:26.684Z,10.27
2018-01-20T07:57:56.537Z,9.27
2018-01-20T08:00:26.564Z,12.80
2018-01-20T08:02:57.112Z,8.07
2018-01-20T08:05:27.234Z,9.70
2018-01-20T08:07:57.041Z,9.38
2018-01-20T08:10:26.811Z,7.75
2018-01-20T08:12:56.808Z,8.75
2018-01-20T08:15:26.596Z,10.73
2018-01-20T08:17:56.384Z,8.30
2018-01-20T08:20:26.490Z,7.25
2018-01-20T08:22:57.010Z,8.75
2018-01-20T08:25:26.531Z,9.57
2018-01-20T08:27:56.350Z,7.12
2018-01-20T08:30:26.169Z,8.80
2018-01-20T08:32:55.974Z,12.45
2018-01-20T08:35:25.765Z,7.97
2018-01-20T08:37:55.565Z,9.15
2018-01-20T08:40:25.369Z,9.85
2018-01-20T08:42:55.175Z,13.35
2018-01-20T08:45:24.968Z,8.15
2018-01-20T08:47:54.748Z,9.45
2018-01-20T08:50:24.539Z,10.75
2018-01-20T08:52:54.316Z,14.93
2018-01-20T08:55:24.129Z,11.38
2018-01-20T08:57:53.972Z,17.20
2018-01-20T09:00:24.500Z,11.65
2018-01-20T09:02:54.345Z,14.40
2018-01-20T09:05:24.128Z,7.28
2018-01-20T09:07:54.041Z,5.78
2018-01-20T09:10:23.824Z,5.93
2018-01-20T09:12:53.726Z,4.07
2018-01-20T09:15:23.567Z,4.82
2018-01-20T09:17:53.400Z,6.40
2018-01-20T09:20:23.764Z,7.20
2018-01-20T09:22:53.554Z,4.70
2018-01-20T09:25:23.346Z,4.60
2018-01-20T09:27:52.809Z,4.40
2018-01-20T09:30:22.690Z,8.05
2018-01-20T09:32:52.667Z,4.10
2018-01-20T09:35:22.481Z,4.53
2018-01-20T09:37:53.476Z,6.22
2018-01-20T09:40:23.357Z,4.75
2018-01-20T09:42:53.182Z,4.78
2018-01-20T09:45:23.197Z,4.95
2018-01-20T09:47:53.041Z,5.85
2018-01-20T09:50:23.020Z,6.05
2018-01-20T09:52:53.112Z,4.40
2018-01-20T09:55:23.351Z,5.60
2018-01-20T09:57:53.887Z,7.40
2018-01-20T10:00:24.720Z,6.65
2018-01-20T10:02:54.546Z,7.25
2018-01-20T10:05:24.373Z,7.05
2018-01-20T10:07:54.822Z,9.80
2018-01-20T10:10:25.255Z,10.55
2018-01-20T10:12:55.875Z,12.80
2018-01-20T10:15:25.967Z,9.20
2018-01-20T10:17:56.027Z,11.30
2018-01-20T10:20:26.102Z,9.05
2018-01-20T10:22:56.329Z,6.50
2018-01-20T10:25:26.669Z,7.03
2018-01-20T10:27:56.745Z,5.50
2018-01-20T10:30:26.573Z,6.15
2018-01-20T10:32:57.229Z,3.45
2018-01-20T10:35:28.530Z,3.37
2018-01-20T10:37:59.580Z,2.78
2018-01-20T10:40:29.652Z,4.25
2018-01-20T10:43:00.174Z,2.35
2018-01-20T10:45:30.478Z,2.90
2018-01-20T10:48:05.629Z,2.55
2018-01-20T10:50:35.537Z,4.25
2018-01-20T10:53:05.382Z,3.15
2018-01-20T10:55:35.303Z,2.75
2018-01-20T10:58:05.795Z,2.40
2018-01-20T11:00:36.212Z,3.15
2018-01-20T11:03:06.679Z,2.37
2018-01-20T11:05:37.459Z,2.35
2018-01-20T11:08:07.742Z,2.20
2018-01-20T11:10:38.002Z,2.50
2018-01-20T11:13:07.964Z,2.50
2018-01-20T11:15:38.553Z,2.42
2018-01-20T11:18:08.436Z,1.83
2018-01-20T11:20:38.783Z,2.35
2018-01-20T11:23:09.215Z,1.58
2018-01-20T11:25:39.432Z,1.92
2018-01-20T11:28:10.115Z,1.58
2018-01-20T11:30:41.078Z,1.30
2018-01-20T11:33:10.839Z,1.42
2018-01-20T11:35:40.635Z,1.40
2018-01-20T11:38:10.551Z,1.80
2018-01-20T11:40:40.367Z,1.25
2018-01-20T11:43:10.268Z,1.40
2018-01-20T11:45:40.246Z,1.70
2018-01-20T11:48:11.764Z,2.55
2018-01-20T11:50:41.736Z,1.40
2018-01-20T11:53:11.560Z,3.20
2018-01-20T11:55:42.012Z,2.47
2018-01-20T11:58:11.962Z,4.37
2018-01-20T12:03:17.229Z,2.10
2018-01-20T12:05:47.140Z,2.62
2018-01-20T12:08:17.091Z,1.67
2018-01-20T12:10:47.382Z,1.90
2018-01-20T12:13:17.629Z,2.03
2018-01-20T12:15:48.950Z,3.17
2018-01-20T12:18:18.934Z,2.03
2018-01-20T12:20:48.838Z,3.00
2018-01-20T12:23:20.165Z,2.45
2018-01-20T12:25:50.391Z,1.77
2018-01-20T12:28:20.577Z,1.90
2018-01-20T12:30:50.211Z,1.62
2018-01-20T12:33:20.011Z,1.58
2018-01-20T12:35:49.672Z,1.58
2018-01-20T12:38:19.323Z,9.30
2018-01-20T12:40:49.050Z,1.40
2018-01-20T12:43:18.841Z,1.75
2018-01-20T12:45:48.728Z,5.10
2018-01-20T12:48:18.433Z,3.03
2018-01-20T12:50:48.232Z,1.33
2018-01-20T12:53:20.013Z,1.50
2018-01-20T12:55:50.105Z,2.45
2018-01-20T12:58:19.961Z,1.37
2018-01-20T13:00:49.865Z,1.45
2018-01-20T13:03:19.749Z,2.37
2018-01-20T13:05:49.619Z,1.77
2018-01-20T13:08:19.414Z,1.60
2018-01-20T13:10:49.420Z,1.60
2018-01-20T13:13:19.365Z,1.65
2018-01-20T13:15:49.243Z,1.50
2018-01-20T13:18:19.133Z,6.10
2018-01-20T13:20:49.005Z,9.80
2018-01-20T13:23:18.833Z,1.45
2018-01-20T13:25:48.740Z,2.37
2018-01-20T13:28:18.694Z,1.83
2018-01-20T13:30:48.688Z,7.00
2018-01-20T13:33:19.068Z,4.07
2018-01-20T13:35:48.879Z,1.95
2018-01-20T13:38:19.069Z,1.73
2018-01-20T13:40:48.887Z,1.50
2018-01-20T13:43:18.676Z,2.30
2018-01-20T13:45:48.480Z,4.32
2018-01-20T13:48:18.520Z,1.50
2018-01-20T13:50:48.327Z,1.35
2018-01-20T13:53:18.282Z,2.17
2018-01-20T13:55:48.451Z,2.70
2018-01-20T13:58:18.422Z,1.52
2018-01-20T14:00:47.947Z,2.00
2018-01-20T14:03:17.788Z,1.95
2018-01-20T14:05:47.657Z,1.80
2018-01-20T14:08:17.460Z,3.72
2018-01-20T14:10:47.276Z,2.17
2018-01-20T14:13:17.083Z,4.10
2018-01-20T14:15:46.931Z,3.30
2018-01-20T14:18:17.622Z,2.65
2018-01-20T14:20:47.440Z,5.43
2018-01-20T14:23:17.259Z,2.50
2018-01-20T14:25:47.072Z,2.65
2018-01-20T14:28:17.720Z,6.37
2018-01-20T14:30:47.511Z,6.15
2018-01-20T14:33:17.403Z,5.82
2018-01-20T14:35:47.337Z,3.83
2018-01-20T14:38:17.204Z,3.20
2018-01-20T14:40:46.988Z,4.22
2018-01-20T14:43:16.823Z,4.22
2018-01-20T14:45:46.677Z,4.07
2018-01-20T14:48:16.415Z,5.70
2018-01-20T14:50:46.342Z,3.70
2018-01-20T14:53:16.199Z,3.42
2018-01-20T14:55:46.104Z,6.25
2018-01-20T14:58:15.937Z,4.10
2018-01-20T15:00:45.728Z,6.87
2018-01-20T15:03:15.396Z,6.47
2018-01-20T15:05:45.197Z,4.93
2018-01-20T15:08:15.076Z,5.20
2018-01-20T15:10:44.893Z,7.03
2018-01-20T15:13:14.724Z,8.73
2018-01-20T15:15:44.549Z,6.28
2018-01-20T15:18:14.512Z,6.07
2018-01-20T15:20:44.392Z,6.70
2018-01-20T15:23:14.720Z,6.82
2018-01-20T15:25:44.495Z,6.57
2018-01-20T15:28:14.520Z,6.18
2018-01-20T15:30:44.353Z,3.75
2018-01-20T15:33:14.381Z,2.90
2018-01-20T15:35:47.798Z,2.53
2018-01-20T15:38:19.390Z,2.90
2018-01-20T15:40:49.328Z,1.48
2018-01-20T15:43:19.153Z,2.55
2018-01-20T15:45:56.477Z,2.10
2018-01-20T15:48:27.633Z,1.58
2018-01-20T15:50:57.528Z,1.67
2018-01-20T15:53:28.102Z,7.00
2018-01-20T15:55:57.935Z,5.43
2018-01-20T15:58:28.203Z,3.70
2018-01-20T16:00:58.124Z,2.87
2018-01-20T16:03:27.938Z,3.15
2018-01-20T16:05:57.799Z,3.25
2018-01-20T16:08:27.660Z,3.12
2018-01-20T16:10:57.610Z,6.37
2018-01-20T16:13:27.467Z,3.10
2018-01-20T16:16:04.367Z,7.82
2018-01-20T16:18:34.257Z,5.22
2018-01-20T16:21:03.901Z,9.60
2018-01-20T16:23:34.784Z,6.15
2018-01-20T16:26:04.743Z,8.80
2018-01-20T16:28:35.119Z,7.68
2018-01-20T16:31:04.974Z,10.95
2018-01-20T16:33:34.792Z,9.73
2018-01-20T16:36:04.592Z,9.43
2018-01-20T16:38:34.459Z,13.07
2018-01-20T16:41:04.073Z,13.35
2018-01-20T16:43:34.053Z,14.45
2018-01-20T16:46:03.883Z,15.23
2018-01-20T16:48:33.951Z,18.15
2018-01-20T16:51:06.014Z,14.45
2018-01-20T16:53:35.987Z,13.35
2018-01-20T16:56:05.822Z,13.30
2018-01-20T16:58:35.680Z,9.90
2018-01-20T17:01:05.574Z,9.70
2018-01-20T17:03:35.640Z,14.77
2018-01-20T17:06:05.480Z,11.82
2018-01-20T17:08:35.324Z,11.05
2018-01-20T17:11:05.375Z,12.82
2018-01-20T17:13:35.191Z,14.32
2018-01-20T17:16:05.091Z,14.27
2018-01-20T17:18:34.973Z,10.02
2018-01-20T17:21:04.516Z,9.60
2018-01-20T17:23:34.858Z,7.50
2018-01-20T17:26:04.811Z,15.90
2018-01-20T17:28:34.601Z,10.10
2018-01-20T17:31:04.464Z,15.68
2018-01-20T17:33:34.410Z,11.98
2018-01-20T17:36:04.141Z,16.25
2018-01-20T17:38:34.424Z,18.98
2018-01-20T17:41:04.280Z,20.85
2018-01-20T17:43:34.148Z,20.17
2018-01-20T17:46:03.916Z,18.58
2018-01-20T17:48:33.747Z,21.58
2018-01-20T17:51:03.430Z,18.98
2018-01-20T17:53:33.127Z,21.50
2018-01-20T17:56:03.146Z,21.27
2018-01-20T17:58:33.388Z,19.92
2018-01-20T18:01:03.340Z,23.20
2018-01-20T18:03:33.212Z,19.67
2018-01-20T18:06:03.434Z,18.98
2018-01-20T18:08:33.256Z,17.23
2018-01-20T18:11:03.153Z,20.80
2018-01-20T18:13:33.092Z,18.35
2018-01-20T18:16:03.146Z,19.58
2018-01-20T18:18:33.090Z,22.92
2018-01-20T18:21:02.927Z,20.90
2018-01-20T18:23:33.351Z,21.17
2018-01-20T18:26:03.386Z,19.98
2018-01-20T18:28:33.360Z,18.98
2018-01-20T18:31:03.817Z,22.02
2018-01-20T18:33:33.698Z,22.30
2018-01-20T18:36:03.915Z,18.60
2018-01-20T18:38:33.763Z,21.77
2018-01-20T18:41:03.595Z,27.15
2018-01-20T18:43:33.494Z,25.75
2018-01-20T18:46:03.603Z,21.95
2018-01-20T18:48:33.458Z,24.37
2018-01-20T18:51:03.314Z,18.17
2018-01-20T18:53:33.215Z,19.20
2018-01-20T18:56:03.238Z,22.50
2018-01-20T18:58:33.174Z,20.67
2018-01-20T19:01:03.014Z,20.37
2018-01-20T19:03:32.937Z,22.23
2018-01-20T19:06:02.786Z,19.23
2018-01-20T19:08:32.405Z,22.13
2018-01-20T19:11:02.262Z,12.05
2018-01-20T19:13:32.095Z,14.35
2018-01-20T19:16:01.974Z,13.70
2018-01-20T19:18:32.000Z,12.02
2018-01-20T19:21:01.826Z,10.20
2018-01-20T19:23:31.433Z,12.27
2018-01-20T19:26:01.512Z,9.48
2018-01-20T19:28:31.298Z,8.73
2018-01-20T19:31:01.143Z,12.02
2018-01-20T19:33:30.952Z,9.25
2018-01-20T19:36:00.832Z,9.65
2018-01-20T19:38:30.733Z,8.57
2018-01-20T19:41:00.584Z,7.47
2018-01-20T19:43:30.425Z,8.23
2018-01-20T19:46:00.297Z,7.22
2018-01-20T19:48:30.131Z,9.75
2018-01-20T19:50:59.930Z,9.70
2018-01-20T19:53:29.755Z,7.30
2018-01-20T19:55:59.556Z,5.60
2018-01-20T19:58:29.433Z,7.60
2018-01-20T20:01:00.770Z,4.65
2018-01-20T20:03:30.577Z,5.50
2018-01-20T20:06:00.383Z,4.50
2018-01-20T20:08:30.496Z,4.43
2018-01-20T20:11:00.345Z,4.87
2018-01-20T20:13:30.270Z,3.17
2018-01-20T20:16:00.101Z,2.65
2018-01-20T20:18:29.944Z,2.85
2018-01-20T20:20:59.887Z,1.92
2018-01-20T20:23:30.405Z,2.97
2018-01-20T20:26:00.241Z,2.33
2018-01-20T20:28:30.108Z,2.03
2018-01-20T20:30:59.942Z,2.65
2018-01-20T20:33:29.731Z,2.00
2018-01-20T20:35:59.680Z,2.55
2018-01-20T20:38:29.473Z,2.55
2018-01-20T20:40:59.292Z,2.17
2018-01-20T20:43:29.112Z,3.00
2018-01-20T20:45:58.936Z,2.30
2018-01-20T20:48:28.776Z,4.50
2018-01-20T20:50:58.611Z,3.75
2018-01-20T20:53:28.449Z,4.15
2018-01-20T20:55:58.453Z,3.85
2018-01-20T20:58:28.258Z,3.62
2018-01-20T21:00:58.080Z,2.92
2018-01-20T21:03:27.937Z,4.80
2018-01-20T21:05:58.023Z,2.40
2018-01-20T21:08:27.878Z,2.53
2018-01-20T21:10:57.712Z,3.67
2018-01-20T21:13:27.494Z,2.70
2018-01-20T21:15:57.365Z,2.75
2018-01-20T21:18:27.160Z,2.20
2018-01-20T21:20:57.064Z,2.40
2018-01-20T21:23:27.036Z,2.28
2018-01-20T21:25:56.998Z,2.15
2018-01-20T21:28:26.877Z,2.55
2018-01-20T21:30:56.775Z,4.43
2018-01-20T21:33:26.607Z,2.20
2018-01-20T21:35:56.485Z,2.72
2018-01-20T21:38:26.314Z,3.40
2018-01-20T21:40:56.160Z,2.87
2018-01-20T21:43:26.012Z,4.30
2018-01-20T21:45:55.783Z,1.80
2018-01-20T21:48:25.625Z,2.00
2018-01-20T21:50:55.468Z,2.30
2018-01-20T21:53:25.396Z,2.05
2018-01-20T21:55:55.206Z,2.83
2018-01-20T21:58:25.039Z,2.58
2018-01-20T22:00:54.874Z,1.85
2018-01-20T22:03:24.888Z,2.08
2018-01-20T22:05:54.813Z,1.67
2018-01-20T22:08:35.845Z,2.10
2018-01-20T22:11:11.194Z,2.92
2018-01-20T22:13:41.013Z,5.45
2018-01-20T22:16:10.976Z,2.15
2018-01-20T22:18:40.794Z,1.83
2018-01-20T22:21:11.327Z,3.55
2018-01-20T22:23:41.115Z,1.98
2018-01-20T22:26:11.463Z,1.60
2018-01-20T22:28:41.261Z,1.83
2018-01-20T22:31:14.956Z,3.40
2018-01-20T22:33:44.761Z,3.03
2018-01-20T22:36:14.572Z,1.40
2018-01-20T22:38:44.349Z,4.80
2018-01-20T22:41:15.021Z,3.83
2018-01-20T22:43:44.880Z,3.95
2018-01-20T22:46:14.661Z,5.37
2018-01-20T22:48:44.721Z,3.85
2018-01-20T22:51:14.594Z,7.60
2018-01-20T22:53:45.295Z,6.90
2018-01-20T22:56:15.151Z,5.22
2018-01-20T22:58:44.949Z,3.10
2018-01-20T23:01:20.214Z,3.60
2018-01-20T23:03:49.784Z,2.78
2018-01-20T23:06:19.614Z,3.58
2018-01-20T23:08:49.492Z,2.58
2018-01-20T23:11:19.289Z,2.70
2018-01-20T23:13:49.148Z,4.20
2018-01-20T23:16:18.697Z,5.75
2018-01-20T23:18:48.591Z,4.15
2018-01-20T23:21:18.405Z,4.22
2018-01-20T23:23:48.424Z,3.97
2018-01-20T23:26:18.452Z,3.30
2018-01-20T23:28:48.293Z,4.47
2018-01-20T23:31:18.114Z,4.00
2018-01-20T23:33:48.248Z,4.22
2018-01-20T23:36:18.033Z,3.72
2018-01-20T23:38:47.902Z,3.70
2018-01-20T23:41:17.719Z,4.60
2018-01-20T23:43:47.525Z,3.75
2018-01-20T23:46:18.086Z,3.53
2018-01-20T23:48:48.085Z,6.03
2018-01-20T23:51:18.325Z,4.10
2018-01-20T23:53:48.346Z,4.03
2018-01-20T23:56:18.198Z,3.85
2018-01-20T23:58:47.987Z,6.03
